Terminal Aerodrome Forecast
Issued by NWS

Home | Current Version | Previous Version | Text Only | Print | Product List | Glossary On
Versions: 1 2 3 4 5 6 7 8 9 10 11 12 13 14 15 16
000
FTUS42 KMLB 032349 RRA
TAFSFB
TAF
KSFB 032349Z 0400/0424 21010G16KT P6SM VCSH FEW070
     FM041300 22007KT P6SM SCT030 SCT100 OVC250
     FM041900 24009KT P6SM VCTS SCT035CB BKN100
      TEMPO 0420/0423 4SM TSRA BKN030CB BKN070=

USA.gov is the U.S. government's official web portal to all federal, state and local government web resources and services.